sensor_id;sensor_type;location;lat;lon;timestamp;P1;durP1;ratioP1;P2;durP2;ratioP2
5951;SDS011;3001;42.622;23.194;2023-06-10T00:00:03;4.07;;;3.77;;
5951;SDS011;3001;42.622;23.194;2023-06-10T00:02:32;4.13;;;3.83;;
5951;SDS011;3001;42.622;23.194;2023-06-10T00:04:58;3.60;;;3.30;;
5951;SDS011;3001;42.622;23.194;2023-06-10T00:07:25;3.73;;;3.53;;
5951;SDS011;3001;42.622;23.194;2023-06-10T00:09:53;7.17;;;3.60;;
5951;SDS011;3001;42.622;23.194;2023-06-10T00:12:20;5.07;;;3.70;;
5951;SDS011;3001;42.622;23.194;2023-06-10T00:14:47;4.30;;;3.97;;
5951;SDS011;3001;42.622;23.194;2023-06-10T00:17:15;4.27;;;3.87;;
5951;SDS011;3001;42.622;23.194;2023-06-10T00:19:42;3.70;;;3.50;;
5951;SDS011;3001;42.622;23.194;2023-06-10T00:22:08;3.40;;;3.30;;
5951;SDS011;3001;42.622;23.194;2023-06-10T00:24:35;4.20;;;3.80;;
5951;SDS011;3001;42.622;23.194;2023-06-10T00:27:04;3.73;;;3.43;;
5951;SDS011;3001;42.622;23.194;2023-06-10T00:29:32;6.40;;;4.07;;
5951;SDS011;3001;42.622;23.194;2023-06-10T00:31:58;3.90;;;3.70;;
5951;SDS011;3001;42.622;23.194;2023-06-10T00:34:25;4.20;;;3.80;;
5951;SDS011;3001;42.622;23.194;2023-06-10T00:36:52;4.20;;;3.80;;
5951;SDS011;3001;42.622;23.194;2023-06-10T00:39:18;3.83;;;3.63;;
5951;SDS011;3001;42.622;23.194;2023-06-10T00:41:45;4.37;;;4.07;;
5951;SDS011;3001;42.622;23.194;2023-06-10T00:44:13;4.03;;;3.73;;
5951;SDS011;3001;42.622;23.194;2023-06-10T00:46:39;4.10;;;3.80;;
5951;SDS011;3001;42.622;23.194;2023-06-10T00:49:07;4.43;;;4.13;;
5951;SDS011;3001;42.622;23.194;2023-06-10T00:51:33;4.10;;;3.77;;
5951;SDS011;3001;42.622;23.194;2023-06-10T00:54:01;4.90;;;4.67;;
5951;SDS011;3001;42.622;23.194;2023-06-10T00:56:28;3.90;;;3.67;;
5951;SDS011;3001;42.622;23.194;2023-06-10T00:58:55;4.40;;;4.10;;
5951;SDS011;3001;42.622;23.194;2023-06-10T01:01:23;4.20;;;4.00;;
5951;SDS011;3001;42.622;23.194;2023-06-10T01:03:50;4.53;;;4.13;;
5951;SDS011;3001;42.622;23.194;2023-06-10T01:06:19;4.30;;;4.00;;
5951;SDS011;3001;42.622;23.194;2023-06-10T01:08:55;4.73;;;4.53;;
5951;SDS011;3001;42.622;23.194;2023-06-10T01:11:28;4.70;;;4.40;;
5951;SDS011;3001;42.622;23.194;2023-06-10T01:14:00;5.30;;;4.90;;
5951;SDS011;3001;42.622;23.194;2023-06-10T01:16:29;4.47;;;4.27;;
5951;SDS011;3001;42.622;23.194;2023-06-10T01:18:56;4.43;;;4.13;;
5951;SDS011;3001;42.622;23.194;2023-06-10T01:21:24;4.40;;;4.10;;
5951;SDS011;3001;42.622;23.194;2023-06-10T01:23:52;4.13;;;3.93;;
5951;SDS011;3001;42.622;23.194;2023-06-10T01:26:21;4.53;;;4.23;;
5951;SDS011;3001;42.622;23.194;2023-06-10T01:28:53;4.10;;;3.87;;
5951;SDS011;3001;42.622;23.194;2023-06-10T01:31:28;5.13;;;4.77;;
5951;SDS011;3001;42.622;23.194;2023-06-10T01:34:01;6.87;;;4.03;;
5951;SDS011;3001;42.622;23.194;2023-06-10T01:36:34;4.87;;;4.67;;
5951;SDS011;3001;42.622;23.194;2023-06-10T01:39:02;5.53;;;4.47;;
5951;SDS011;3001;42.622;23.194;2023-06-10T01:41:31;4.77;;;4.47;;
5951;SDS011;3001;42.622;23.194;2023-06-10T01:43:58;5.13;;;4.83;;
5951;SDS011;3001;42.622;23.194;2023-06-10T01:46:25;5.30;;;4.90;;
5951;SDS011;3001;42.622;23.194;2023-06-10T01:48:52;5.87;;;5.27;;
5951;SDS011;3001;42.622;23.194;2023-06-10T01:51:19;5.07;;;4.67;;
5951;SDS011;3001;42.622;23.194;2023-06-10T01:53:47;5.23;;;4.83;;
5951;SDS011;3001;42.622;23.194;2023-06-10T01:56:13;5.07;;;4.83;;
5951;SDS011;3001;42.622;23.194;2023-06-10T01:58:44;4.43;;;4.17;;
5951;SDS011;3001;42.622;23.194;2023-06-10T02:01:11;5.40;;;5.00;;
5951;SDS011;3001;42.622;23.194;2023-06-10T02:03:38;5.80;;;5.40;;
5951;SDS011;3001;42.622;23.194;2023-06-10T02:06:05;5.67;;;5.37;;
5951;SDS011;3001;42.622;23.194;2023-06-10T02:08:32;5.07;;;4.77;;
5951;SDS011;3001;42.622;23.194;2023-06-10T02:11:00;7.20;;;4.60;;
5951;SDS011;3001;42.622;23.194;2023-06-10T02:13:26;4.93;;;4.73;;
5951;SDS011;3001;42.622;23.194;2023-06-10T02:15:53;5.07;;;4.67;;
5951;SDS011;3001;42.622;23.194;2023-06-10T02:18:20;5.40;;;4.90;;
5951;SDS011;3001;42.622;23.194;2023-06-10T02:20:46;5.00;;;4.50;;
5951;SDS011;3001;42.622;23.194;2023-06-10T02:23:13;5.00;;;4.17;;
5951;SDS011;3001;42.622;23.194;2023-06-10T02:25:40;4.77;;;4.27;;
5951;SDS011;3001;42.622;23.194;2023-06-10T02:28:08;4.63;;;4.33;;
5951;SDS011;3001;42.622;23.194;2023-06-10T02:30:35;5.53;;;5.13;;
5951;SDS011;3001;42.622;23.194;2023-06-10T02:33:05;5.27;;;4.77;;
5951;SDS011;3001;42.622;23.194;2023-06-10T02:35:35;4.90;;;4.60;;
5951;SDS011;3001;42.622;23.194;2023-06-10T02:38:01;4.97;;;4.67;;
5951;SDS011;3001;42.622;23.194;2023-06-10T02:40:29;4.93;;;4.70;;
5951;SDS011;3001;42.622;23.194;2023-06-10T02:42:55;5.10;;;4.80;;
5951;SDS011;3001;42.622;23.194;2023-06-10T02:45:23;4.93;;;4.53;;
5951;SDS011;3001;42.622;23.194;2023-06-10T02:47:50;5.73;;;5.03;;
5951;SDS011;3001;42.622;23.194;2023-06-10T02:50:17;6.33;;;4.37;;
5951;SDS011;3001;42.622;23.194;2023-06-10T02:52:43;4.80;;;4.50;;
5951;SDS011;3001;42.622;23.194;2023-06-10T02:55:10;4.83;;;4.57;;
5951;SDS011;3001;42.622;23.194;2023-06-10T02:57:37;5.30;;;5.00;;
5951;SDS011;3001;42.622;23.194;2023-06-10T03:00:04;5.67;;;5.10;;
5951;SDS011;3001;42.622;23.194;2023-06-10T03:02:36;5.43;;;5.07;;
5951;SDS011;3001;42.622;23.194;2023-06-10T03:05:04;5.57;;;5.07;;
5951;SDS011;3001;42.622;23.194;2023-06-10T03:07:34;5.23;;;4.93;;
5951;SDS011;3001;42.622;23.194;2023-06-10T03:10:00;5.60;;;5.03;;
5951;SDS011;3001;42.622;23.194;2023-06-10T03:12:27;5.40;;;5.10;;
5951;SDS011;3001;42.622;23.194;2023-06-10T03:14:54;6.10;;;5.63;;
5951;SDS011;3001;42.622;23.194;2023-06-10T03:17:20;5.57;;;5.20;;
5951;SDS011;3001;42.622;23.194;2023-06-10T03:19:48;5.60;;;5.30;;
5951;SDS011;3001;42.622;23.194;2023-06-10T03:22:16;5.83;;;5.43;;
5951;SDS011;3001;42.622;23.194;2023-06-10T03:24:43;5.17;;;4.77;;
5951;SDS011;3001;42.622;23.194;2023-06-10T03:27:11;4.90;;;4.63;;
5951;SDS011;3001;42.622;23.194;2023-06-10T03:29:38;5.60;;;5.30;;
5951;SDS011;3001;42.622;23.194;2023-06-10T03:32:05;5.27;;;4.97;;
5951;SDS011;3001;42.622;23.194;2023-06-10T03:34:32;5.60;;;5.17;;
5951;SDS011;3001;42.622;23.194;2023-06-10T03:37:00;5.17;;;4.77;;
5951;SDS011;3001;42.622;23.194;2023-06-10T03:39:28;5.37;;;5.07;;
5951;SDS011;3001;42.622;23.194;2023-06-10T03:41:55;6.37;;;5.97;;
5951;SDS011;3001;42.622;23.194;2023-06-10T03:44:22;5.77;;;5.37;;
5951;SDS011;3001;42.622;23.194;2023-06-10T03:46:48;6.07;;;5.53;;
5951;SDS011;3001;42.622;23.194;2023-06-10T03:49:15;5.67;;;5.30;;
5951;SDS011;3001;42.622;23.194;2023-06-10T03:51:42;6.50;;;5.90;;
5951;SDS011;3001;42.622;23.194;2023-06-10T03:54:11;6.00;;;5.60;;
5951;SDS011;3001;42.622;23.194;2023-06-10T03:56:37;5.53;;;5.23;;
5951;SDS011;3001;42.622;23.194;2023-06-10T03:59:05;6.03;;;5.53;;
5951;SDS011;3001;42.622;23.194;2023-06-10T04:01:31;6.77;;;6.33;;
5951;SDS011;3001;42.622;23.194;2023-06-10T04:03:58;5.60;;;5.20;;
5951;SDS011;3001;42.622;23.194;2023-06-10T04:06:26;5.93;;;5.63;;
5951;SDS011;3001;42.622;23.194;2023-06-10T04:08:54;6.90;;;6.30;;
5951;SDS011;3001;42.622;23.194;2023-06-10T04:11:23;6.70;;;6.33;;
5951;SDS011;3001;42.622;23.194;2023-06-10T04:13:50;7.07;;;6.60;;
5951;SDS011;3001;42.622;23.194;2023-06-10T04:16:18;6.97;;;6.47;;
5951;SDS011;3001;42.622;23.194;2023-06-10T04:18:44;5.83;;;5.53;;
5951;SDS011;3001;42.622;23.194;2023-06-10T04:21:11;6.30;;;6.00;;
5951;SDS011;3001;42.622;23.194;2023-06-10T04:23:38;7.17;;;6.70;;
5951;SDS011;3001;42.622;23.194;2023-06-10T04:26:04;6.07;;;5.77;;
5951;SDS011;3001;42.622;23.194;2023-06-10T04:28:33;6.53;;;6.03;;
5951;SDS011;3001;42.622;23.194;2023-06-10T04:31:01;6.03;;;5.57;;
5951;SDS011;3001;42.622;23.194;2023-06-10T04:33:29;6.40;;;6.03;;
5951;SDS011;3001;42.622;23.194;2023-06-10T04:35:55;6.20;;;5.80;;
5951;SDS011;3001;42.622;23.194;2023-06-10T04:38:22;6.97;;;6.60;;
5951;SDS011;3001;42.622;23.194;2023-06-10T04:40:49;8.10;;;7.50;;
5951;SDS011;3001;42.622;23.194;2023-06-10T04:43:15;8.40;;;7.70;;
5951;SDS011;3001;42.622;23.194;2023-06-10T04:45:44;7.30;;;6.80;;
5951;SDS011;3001;42.622;23.194;2023-06-10T04:48:10;7.47;;;7.03;;
5951;SDS011;3001;42.622;23.194;2023-06-10T04:50:37;9.00;;;7.17;;
5951;SDS011;3001;42.622;23.194;2023-06-10T04:53:04;7.67;;;7.27;;
5951;SDS011;3001;42.622;23.194;2023-06-10T04:55:31;10.30;;;8.20;;
5951;SDS011;3001;42.622;23.194;2023-06-10T04:57:58;7.80;;;7.20;;
5951;SDS011;3001;42.622;23.194;2023-06-10T05:00:25;7.93;;;7.30;;
5951;SDS011;3001;42.622;23.194;2023-06-10T05:02:53;7.13;;;6.57;;
5951;SDS011;3001;42.622;23.194;2023-06-10T05:05:21;7.10;;;6.60;;
5951;SDS011;3001;42.622;23.194;2023-06-10T05:07:49;7.00;;;6.50;;
5951;SDS011;3001;42.622;23.194;2023-06-10T05:10:15;6.67;;;6.27;;
5951;SDS011;3001;42.622;23.194;2023-06-10T05:12:42;6.57;;;6.17;;
5951;SDS011;3001;42.622;23.194;2023-06-10T05:15:09;6.90;;;6.50;;
5951;SDS011;3001;42.622;23.194;2023-06-10T05:17:36;6.70;;;6.20;;
5951;SDS011;3001;42.622;23.194;2023-06-10T05:20:05;6.80;;;6.27;;
5951;SDS011;3001;42.622;23.194;2023-06-10T05:22:33;8.07;;;7.27;;
5951;SDS011;3001;42.622;23.194;2023-06-10T05:24:59;8.20;;;7.43;;
5951;SDS011;3001;42.622;23.194;2023-06-10T05:27:26;6.93;;;6.63;;
5951;SDS011;3001;42.622;23.194;2023-06-10T05:29:53;7.13;;;6.63;;
5951;SDS011;3001;42.622;23.194;2023-06-10T05:32:19;8.07;;;7.37;;
5951;SDS011;3001;42.622;23.194;2023-06-10T05:34:46;7.30;;;6.90;;
5951;SDS011;3001;42.622;23.194;2023-06-10T05:37:14;7.00;;;6.67;;
5951;SDS011;3001;42.622;23.194;2023-06-10T05:39:41;7.37;;;6.87;;
5951;SDS011;3001;42.622;23.194;2023-06-10T05:42:08;7.47;;;6.77;;
5951;SDS011;3001;42.622;23.194;2023-06-10T05:44:35;7.00;;;6.60;;
5951;SDS011;3001;42.622;23.194;2023-06-10T05:47:02;7.07;;;6.67;;
5951;SDS011;3001;42.622;23.194;2023-06-10T05:49:29;8.73;;;7.93;;
5951;SDS011;3001;42.622;23.194;2023-06-10T05:51:55;10.03;;;9.03;;
5951;SDS011;3001;42.622;23.194;2023-06-10T05:54:25;9.80;;;9.10;;
5951;SDS011;3001;42.622;23.194;2023-06-10T05:56:52;9.87;;;9.00;;
5951;SDS011;3001;42.622;23.194;2023-06-10T05:59:19;9.37;;;8.77;;
5951;SDS011;3001;42.622;23.194;2023-06-10T06:01:47;9.63;;;8.90;;
5951;SDS011;3001;42.622;23.194;2023-06-10T06:04:14;9.57;;;8.80;;
5951;SDS011;3001;42.622;23.194;2023-06-10T06:06:41;9.37;;;8.53;;
5951;SDS011;3001;42.622;23.194;2023-06-10T06:09:08;9.27;;;8.50;;
5951;SDS011;3001;42.622;23.194;2023-06-10T06:11:36;8.63;;;8.13;;
5951;SDS011;3001;42.622;23.194;2023-06-10T06:14:03;9.47;;;8.70;;
5951;SDS011;3001;42.622;23.194;2023-06-10T06:16:29;9.00;;;8.33;;
5951;SDS011;3001;42.622;23.194;2023-06-10T06:18:56;8.33;;;7.80;;
5951;SDS011;3001;42.622;23.194;2023-06-10T06:21:23;9.43;;;8.73;;
5951;SDS011;3001;42.622;23.194;2023-06-10T06:23:49;8.73;;;7.83;;
5951;SDS011;3001;42.622;23.194;2023-06-10T06:26:16;8.77;;;8.07;;
5951;SDS011;3001;42.622;23.194;2023-06-10T06:28:44;8.80;;;8.13;;
5951;SDS011;3001;42.622;23.194;2023-06-10T06:31:11;7.43;;;6.93;;
5951;SDS011;3001;42.622;23.194;2023-06-10T06:33:37;7.87;;;7.33;;
5951;SDS011;3001;42.622;23.194;2023-06-10T06:36:05;8.10;;;7.60;;
5951;SDS011;3001;42.622;23.194;2023-06-10T06:38:31;7.83;;;7.30;;
5951;SDS011;3001;42.622;23.194;2023-06-10T06:40:58;7.90;;;7.40;;
5951;SDS011;3001;42.622;23.194;2023-06-10T06:43:28;8.70;;;8.10;;
5951;SDS011;3001;42.622;23.194;2023-06-10T06:45:56;8.37;;;7.77;;
5951;SDS011;3001;42.622;23.194;2023-06-10T06:48:23;6.73;;;6.40;;
5951;SDS011;3001;42.622;23.194;2023-06-10T06:50:49;6.60;;;6.20;;
5951;SDS011;3001;42.622;23.194;2023-06-10T06:53:16;6.83;;;6.23;;
5951;SDS011;3001;42.622;23.194;2023-06-10T06:55:43;6.03;;;5.63;;
5951;SDS011;3001;42.622;23.194;2023-06-10T06:58:10;6.13;;;5.83;;
5951;SDS011;3001;42.622;23.194;2023-06-10T07:00:36;6.70;;;6.30;;
5951;SDS011;3001;42.622;23.194;2023-06-10T07:03:04;5.77;;;5.37;;
5951;SDS011;3001;42.622;23.194;2023-06-10T07:05:31;6.27;;;5.77;;
5951;SDS011;3001;42.622;23.194;2023-06-10T07:07:58;6.00;;;5.70;;
5951;SDS011;3001;42.622;23.194;2023-06-10T07:10:25;6.10;;;5.80;;
5951;SDS011;3001;42.622;23.194;2023-06-10T07:12:52;5.87;;;5.57;;
5951;SDS011;3001;42.622;23.194;2023-06-10T07:15:19;5.80;;;5.50;;
5951;SDS011;3001;42.622;23.194;2023-06-10T07:17:45;6.33;;;5.93;;
5951;SDS011;3001;42.622;23.194;2023-06-10T07:20:13;5.40;;;5.10;;
5951;SDS011;3001;42.622;23.194;2023-06-10T07:22:40;5.50;;;5.10;;
5951;SDS011;3001;42.622;23.194;2023-06-10T07:25:07;5.70;;;5.30;;
5951;SDS011;3001;42.622;23.194;2023-06-10T07:27:34;4.47;;;4.27;;
5951;SDS011;3001;42.622;23.194;2023-06-10T07:30:02;5.07;;;4.87;;
5951;SDS011;3001;42.622;23.194;2023-06-10T07:32:29;4.70;;;4.40;;
5951;SDS011;3001;42.622;23.194;2023-06-10T07:34:56;5.27;;;4.87;;
5951;SDS011;3001;42.622;23.194;2023-06-10T07:37:24;4.97;;;4.77;;
5951;SDS011;3001;42.622;23.194;2023-06-10T07:39:51;5.60;;;4.30;;
5951;SDS011;3001;42.622;23.194;2023-06-10T07:42:17;4.73;;;4.43;;
5951;SDS011;3001;42.622;23.194;2023-06-10T07:44:44;6.60;;;4.27;;
5951;SDS011;3001;42.622;23.194;2023-06-10T07:47:11;5.33;;;4.30;;
5951;SDS011;3001;42.622;23.194;2023-06-10T07:49:37;4.53;;;4.23;;
5951;SDS011;3001;42.622;23.194;2023-06-10T07:52:05;4.00;;;3.80;;
5951;SDS011;3001;42.622;23.194;2023-06-10T07:54:33;4.27;;;4.00;;
5951;SDS011;3001;42.622;23.194;2023-06-10T07:57:00;3.60;;;3.40;;
5951;SDS011;3001;42.622;23.194;2023-06-10T07:59:27;3.67;;;3.47;;
5951;SDS011;3001;42.622;23.194;2023-06-10T08:01:54;3.87;;;3.67;;
5951;SDS011;3001;42.622;23.194;2023-06-10T08:04:20;3.40;;;3.20;;
5951;SDS011;3001;42.622;23.194;2023-06-10T08:06:47;5.10;;;3.60;;
5951;SDS011;3001;42.622;23.194;2023-06-10T08:09:14;4.10;;;3.80;;
5951;SDS011;3001;42.622;23.194;2023-06-10T08:11:42;3.57;;;3.37;;
5951;SDS011;3001;42.622;23.194;2023-06-10T08:14:08;3.60;;;3.40;;
5951;SDS011;3001;42.622;23.194;2023-06-10T08:16:35;3.33;;;3.13;;
5951;SDS011;3001;42.622;23.194;2023-06-10T08:19:02;3.90;;;3.50;;
5951;SDS011;3001;42.622;23.194;2023-06-10T08:21:28;3.77;;;3.57;;
5951;SDS011;3001;42.622;23.194;2023-06-10T08:23:55;3.73;;;3.60;;
5951;SDS011;3001;42.622;23.194;2023-06-10T08:26:22;4.10;;;3.40;;
5951;SDS011;3001;42.622;23.194;2023-06-10T08:28:50;8.77;;;3.77;;
5951;SDS011;3001;42.622;23.194;2023-06-10T08:31:16;3.70;;;3.40;;
5951;SDS011;3001;42.622;23.194;2023-06-10T08:33:43;4.10;;;3.80;;
5951;SDS011;3001;42.622;23.194;2023-06-10T08:36:10;4.23;;;3.90;;
5951;SDS011;3001;42.622;23.194;2023-06-10T08:38:37;4.00;;;3.80;;
5951;SDS011;3001;42.622;23.194;2023-06-10T08:41:04;3.77;;;3.57;;
5951;SDS011;3001;42.622;23.194;2023-06-10T08:43:33;4.20;;;4.00;;
5951;SDS011;3001;42.622;23.194;2023-06-10T08:46:04;3.67;;;3.47;;
5951;SDS011;3001;42.622;23.194;2023-06-10T08:48:35;3.33;;;3.23;;
5951;SDS011;3001;42.622;23.194;2023-06-10T08:51:05;4.17;;;3.90;;
5951;SDS011;3001;42.622;23.194;2023-06-10T08:53:33;4.37;;;4.07;;
5951;SDS011;3001;42.622;23.194;2023-06-10T08:56:02;3.90;;;3.60;;
5951;SDS011;3001;42.622;23.194;2023-06-10T08:58:31;5.00;;;4.80;;
5951;SDS011;3001;42.622;23.194;2023-06-10T09:01:06;5.67;;;5.17;;
5951;SDS011;3001;42.622;23.194;2023-06-10T09:03:33;4.23;;;3.93;;
5951;SDS011;3001;42.622;23.194;2023-06-10T09:06:02;6.43;;;4.30;;
5951;SDS011;3001;42.622;23.194;2023-06-10T09:08:33;3.73;;;3.53;;
5951;SDS011;3001;42.622;23.194;2023-06-10T09:11:00;4.30;;;3.50;;
5951;SDS011;3001;42.622;23.194;2023-06-10T09:13:27;3.00;;;2.90;;
5951;SDS011;3001;42.622;23.194;2023-06-10T09:15:53;3.00;;;2.80;;
5951;SDS011;3001;42.622;23.194;2023-06-10T09:18:23;3.00;;;2.90;;
5951;SDS011;3001;42.622;23.194;2023-06-10T09:20:50;3.23;;;3.10;;
5951;SDS011;3001;42.622;23.194;2023-06-10T09:23:16;3.77;;;3.23;;
5951;SDS011;3001;42.622;23.194;2023-06-10T09:25:43;3.53;;;2.73;;
5951;SDS011;3001;42.622;23.194;2023-06-10T09:28:12;3.00;;;2.90;;
5951;SDS011;3001;42.622;23.194;2023-06-10T09:30:40;3.07;;;2.87;;
5951;SDS011;3001;42.622;23.194;2023-06-10T09:33:09;3.30;;;3.20;;
5951;SDS011;3001;42.622;23.194;2023-06-10T09:35:44;3.27;;;2.97;;
5951;SDS011;3001;42.622;23.194;2023-06-10T09:38:13;2.90;;;2.80;;
5951;SDS011;3001;42.622;23.194;2023-06-10T09:40:48;2.80;;;2.70;;
5951;SDS011;3001;42.622;23.194;2023-06-10T09:43:15;3.10;;;2.90;;
5951;SDS011;3001;42.622;23.194;2023-06-10T09:45:41;3.40;;;3.20;;
5951;SDS011;3001;42.622;23.194;2023-06-10T09:48:09;4.30;;;3.90;;
5951;SDS011;3001;42.622;23.194;2023-06-10T09:50:41;4.10;;;3.90;;
5951;SDS011;3001;42.622;23.194;2023-06-10T09:53:09;3.93;;;3.60;;
5951;SDS011;3001;42.622;23.194;2023-06-10T09:55:37;3.80;;;3.60;;
5951;SDS011;3001;42.622;23.194;2023-06-10T09:58:04;3.97;;;3.78;;
5951;SDS011;3001;42.622;23.194;2023-06-10T10:00:31;3.42;;;3.22;;
5951;SDS011;3001;42.622;23.194;2023-06-10T10:02:59;3.50;;;3.30;;
5951;SDS011;3001;42.622;23.194;2023-06-10T10:05:26;5.00;;;4.23;;
5951;SDS011;3001;42.622;23.194;2023-06-10T10:07:56;3.70;;;3.42;;
5951;SDS011;3001;42.622;23.194;2023-06-10T10:10:22;4.00;;;3.70;;
5951;SDS011;3001;42.622;23.194;2023-06-10T10:12:51;4.63;;;4.32;;
5951;SDS011;3001;42.622;23.194;2023-06-10T10:15:22;3.60;;;3.50;;
5951;SDS011;3001;42.622;23.194;2023-06-10T10:17:52;3.88;;;3.58;;
5951;SDS011;3001;42.622;23.194;2023-06-10T10:20:22;2.90;;;2.80;;
5951;SDS011;3001;42.622;23.194;2023-06-10T10:22:53;3.20;;;3.10;;
5951;SDS011;3001;42.622;23.194;2023-06-10T10:25:25;3.15;;;3.00;;
5951;SDS011;3001;42.622;23.194;2023-06-10T10:27:55;3.70;;;3.33;;
5951;SDS011;3001;42.622;23.194;2023-06-10T10:30:24;3.97;;;3.70;;
5951;SDS011;3001;42.622;23.194;2023-06-10T10:32:56;3.92;;;3.63;;
5951;SDS011;3001;42.622;23.194;2023-06-10T10:35:24;4.65;;;4.38;;
5951;SDS011;3001;42.622;23.194;2023-06-10T10:37:52;6.60;;;4.05;;
5951;SDS011;3001;42.622;23.194;2023-06-10T10:40:21;3.35;;;3.15;;
5951;SDS011;3001;42.622;23.194;2023-06-10T10:42:49;3.90;;;3.75;;
5951;SDS011;3001;42.622;23.194;2023-06-10T10:45:17;4.18;;;3.60;;
5951;SDS011;3001;42.622;23.194;2023-06-10T10:47:45;3.90;;;3.60;;
5951;SDS011;3001;42.622;23.194;2023-06-10T10:50:13;4.25;;;4.05;;
5951;SDS011;3001;42.622;23.194;2023-06-10T10:55:27;3.85;;;3.65;;
5951;SDS011;3001;42.622;23.194;2023-06-10T10:57:54;3.97;;;3.63;;
5951;SDS011;3001;42.622;23.194;2023-06-10T11:00:28;4.07;;;3.83;;
5951;SDS011;3001;42.622;23.194;2023-06-10T11:02:59;3.88;;;3.67;;
5951;SDS011;3001;42.622;23.194;2023-06-10T11:05:31;4.38;;;4.07;;
5951;SDS011;3001;42.622;23.194;2023-06-10T11:08:01;5.70;;;4.10;;
5951;SDS011;3001;42.622;23.194;2023-06-10T11:10:30;4.03;;;3.83;;
5951;SDS011;3001;42.622;23.194;2023-06-10T11:12:57;3.97;;;3.70;;
5951;SDS011;3001;42.622;23.194;2023-06-10T11:15:25;4.38;;;4.07;;
5951;SDS011;3001;42.622;23.194;2023-06-10T11:18:11;3.70;;;3.50;;
5951;SDS011;3001;42.622;23.194;2023-06-10T11:20:44;4.15;;;3.95;;
5951;SDS011;3001;42.622;23.194;2023-06-10T11:23:15;3.55;;;3.42;;
5951;SDS011;3001;42.622;23.194;2023-06-10T11:25:52;4.03;;;3.83;;
5951;SDS011;3001;42.622;23.194;2023-06-10T11:28:36;4.07;;;3.78;;
5951;SDS011;3001;42.622;23.194;2023-06-10T11:31:02;4.22;;;3.92;;
5951;SDS011;3001;42.622;23.194;2023-06-10T11:33:29;3.88;;;3.58;;
5951;SDS011;3001;42.622;23.194;2023-06-10T11:35:57;3.67;;;3.47;;
5951;SDS011;3001;42.622;23.194;2023-06-10T11:38:24;3.50;;;3.40;;
5951;SDS011;3001;42.622;23.194;2023-06-10T11:40:51;4.15;;;3.70;;
5951;SDS011;3001;42.622;23.194;2023-06-10T11:43:19;4.03;;;3.72;;
5951;SDS011;3001;42.622;23.194;2023-06-10T11:45:46;4.03;;;3.65;;
5951;SDS011;3001;42.622;23.194;2023-06-10T11:48:13;3.20;;;3.10;;
5951;SDS011;3001;42.622;23.194;2023-06-10T11:50:39;3.35;;;3.13;;
5951;SDS011;3001;42.622;23.194;2023-06-10T11:53:07;3.42;;;3.17;;
5951;SDS011;3001;42.622;23.194;2023-06-10T11:55:41;2.97;;;2.88;;
5951;SDS011;3001;42.622;23.194;2023-06-10T11:58:13;3.67;;;3.47;;
5951;SDS011;3001;42.622;23.194;2023-06-10T12:00:44;3.83;;;3.63;;
5951;SDS011;3001;42.622;23.194;2023-06-10T12:03:12;3.55;;;3.40;;
5951;SDS011;3001;42.622;23.194;2023-06-10T12:05:38;3.35;;;3.25;;
5951;SDS011;3001;42.622;23.194;2023-06-10T12:08:08;3.63;;;3.42;;
5951;SDS011;3001;42.622;23.194;2023-06-10T12:10:39;5.32;;;3.50;;
5951;SDS011;3001;42.622;23.194;2023-06-10T12:13:06;3.28;;;3.10;;
5951;SDS011;3001;42.622;23.194;2023-06-10T12:15:34;3.30;;;3.20;;
5951;SDS011;3001;42.622;23.194;2023-06-10T12:18:01;4.10;;;3.90;;
5951;SDS011;3001;42.622;23.194;2023-06-10T12:20:28;3.90;;;3.70;;
5951;SDS011;3001;42.622;23.194;2023-06-10T12:22:59;3.58;;;3.38;;
5951;SDS011;3001;42.622;23.194;2023-06-10T12:25:26;3.70;;;3.50;;
5951;SDS011;3001;42.622;23.194;2023-06-10T12:27:54;4.07;;;3.78;;
5951;SDS011;3001;42.622;23.194;2023-06-10T12:30:22;3.88;;;3.63;;
5951;SDS011;3001;42.622;23.194;2023-06-10T12:32:52;4.22;;;3.83;;
5951;SDS011;3001;42.622;23.194;2023-06-10T12:35:20;4.10;;;3.90;;
5951;SDS011;3001;42.622;23.194;2023-06-10T12:37:56;4.38;;;4.03;;
5951;SDS011;3001;42.622;23.194;2023-06-10T12:40:27;3.97;;;3.80;;
5951;SDS011;3001;42.622;23.194;2023-06-10T12:42:56;4.63;;;4.20;;
5951;SDS011;3001;42.622;23.194;2023-06-10T12:45:26;4.18;;;3.97;;
5951;SDS011;3001;42.622;23.194;2023-06-10T12:48:03;3.90;;;3.70;;
5951;SDS011;3001;42.622;23.194;2023-06-10T12:50:31;7.43;;;3.85;;
5951;SDS011;3001;42.622;23.194;2023-06-10T12:52:58;4.60;;;4.30;;
5951;SDS011;3001;42.622;23.194;2023-06-10T12:55:25;4.70;;;4.40;;
5951;SDS011;3001;42.622;23.194;2023-06-10T12:57:53;4.25;;;4.05;;
5951;SDS011;3001;42.622;23.194;2023-06-10T13:00:21;4.90;;;4.60;;
5951;SDS011;3001;42.622;23.194;2023-06-10T13:02:50;4.85;;;4.45;;
5951;SDS011;3001;42.622;23.194;2023-06-10T13:05:19;4.40;;;4.10;;
5951;SDS011;3001;42.622;23.194;2023-06-10T13:07:46;3.90;;;3.60;;
5951;SDS011;3001;42.622;23.194;2023-06-10T13:10:13;4.82;;;4.50;;
5951;SDS011;3001;42.622;23.194;2023-06-10T13:12:41;4.25;;;4.00;;
5951;SDS011;3001;42.622;23.194;2023-06-10T13:15:08;3.85;;;3.65;;
5951;SDS011;3001;42.622;23.194;2023-06-10T13:17:35;4.17;;;3.90;;
5951;SDS011;3001;42.622;23.194;2023-06-10T13:20:02;3.83;;;3.60;;
5951;SDS011;3001;42.622;23.194;2023-06-10T13:22:31;5.60;;;3.80;;
5951;SDS011;3001;42.622;23.194;2023-06-10T13:25:00;4.40;;;4.00;;
5951;SDS011;3001;42.622;23.194;2023-06-10T13:27:28;3.80;;;3.63;;
5951;SDS011;3001;42.622;23.194;2023-06-10T13:29:54;3.87;;;3.57;;
5951;SDS011;3001;42.622;23.194;2023-06-10T13:32:21;4.07;;;3.80;;
5951;SDS011;3001;42.622;23.194;2023-06-10T13:34:48;3.97;;;3.67;;
5951;SDS011;3001;42.622;23.194;2023-06-10T13:37:15;3.77;;;3.50;;
5951;SDS011;3001;42.622;23.194;2023-06-10T13:39:43;3.90;;;3.70;;
5951;SDS011;3001;42.622;23.194;2023-06-10T13:42:12;3.87;;;3.67;;
5951;SDS011;3001;42.622;23.194;2023-06-10T13:44:38;4.10;;;3.90;;
5951;SDS011;3001;42.622;23.194;2023-06-10T13:47:05;4.83;;;3.47;;
5951;SDS011;3001;42.622;23.194;2023-06-10T13:49:32;4.97;;;3.50;;
5951;SDS011;3001;42.622;23.194;2023-06-10T13:51:59;4.23;;;4.00;;
5951;SDS011;3001;42.622;23.194;2023-06-10T13:54:26;3.77;;;3.57;;
5951;SDS011;3001;42.622;23.194;2023-06-10T13:56:55;3.80;;;3.60;;
5951;SDS011;3001;42.622;23.194;2023-06-10T13:59:21;3.50;;;3.30;;
5951;SDS011;3001;42.622;23.194;2023-06-10T14:01:48;4.23;;;3.93;;
5951;SDS011;3001;42.622;23.194;2023-06-10T14:04:14;3.97;;;3.77;;
5951;SDS011;3001;42.622;23.194;2023-06-10T14:06:41;4.43;;;4.03;;
5951;SDS011;3001;42.622;23.194;2023-06-10T14:09:08;4.00;;;3.70;;
5951;SDS011;3001;42.622;23.194;2023-06-10T14:11:35;4.03;;;3.83;;
5951;SDS011;3001;42.622;23.194;2023-06-10T14:14:03;4.57;;;4.20;;
5951;SDS011;3001;42.622;23.194;2023-06-10T14:16:30;4.53;;;4.07;;
5951;SDS011;3001;42.622;23.194;2023-06-10T14:18:57;4.67;;;4.27;;
5951;SDS011;3001;42.622;23.194;2023-06-10T14:21:23;5.00;;;4.70;;
5951;SDS011;3001;42.622;23.194;2023-06-10T14:23:50;5.03;;;4.73;;
5951;SDS011;3001;42.622;23.194;2023-06-10T14:26:18;4.77;;;4.47;;
5951;SDS011;3001;42.622;23.194;2023-06-10T14:28:46;4.63;;;4.40;;
5951;SDS011;3001;42.622;23.194;2023-06-10T14:31:14;4.83;;;4.43;;
5951;SDS011;3001;42.622;23.194;2023-06-10T14:33:41;4.90;;;4.50;;
5951;SDS011;3001;42.622;23.194;2023-06-10T14:36:08;5.03;;;4.83;;
5951;SDS011;3001;42.622;23.194;2023-06-10T14:38:35;4.50;;;4.30;;
5951;SDS011;3001;42.622;23.194;2023-06-10T14:41:02;4.30;;;4.10;;
5951;SDS011;3001;42.622;23.194;2023-06-10T14:43:29;4.93;;;4.63;;
5951;SDS011;3001;42.622;23.194;2023-06-10T14:45:55;4.87;;;4.47;;
5951;SDS011;3001;42.622;23.194;2023-06-10T14:48:23;4.17;;;3.97;;
5951;SDS011;3001;42.622;23.194;2023-06-10T14:50:50;4.40;;;4.20;;
5951;SDS011;3001;42.622;23.194;2023-06-10T14:53:17;4.77;;;4.57;;
5951;SDS011;3001;42.622;23.194;2023-06-10T14:55:43;4.47;;;4.27;;
5951;SDS011;3001;42.622;23.194;2023-06-10T14:58:10;5.17;;;4.80;;
5951;SDS011;3001;42.622;23.194;2023-06-10T15:00:37;6.20;;;4.60;;
5951;SDS011;3001;42.622;23.194;2023-06-10T15:03:03;6.53;;;4.80;;
5951;SDS011;3001;42.622;23.194;2023-06-10T15:05:31;5.67;;;5.37;;